createdAt,value
2024-02-16T07:31:10.841Z,12.41
2024-02-16T07:36:47.961Z,12.47
2024-02-16T07:42:06.645Z,12.55
2024-02-16T07:45:01.892Z,12.58
2024-02-16T07:56:53.053Z,12.87
2024-02-16T08:11:13.417Z,13.13
2024-02-16T08:14:08.876Z,13.26
2024-02-16T08:17:11.647Z,13.28
2024-02-16T08:20:35.456Z,13.35
2024-02-16T08:23:44.455Z,13.35
2024-02-16T08:26:29.687Z,13.18
2024-02-16T08:29:02.849Z,13.19
2024-02-16T08:31:32.917Z,13.15
2024-02-16T08:37:24.010Z,13.26
2024-02-16T08:40:14.591Z,13.28
2024-02-16T08:42:48.251Z,13.30
2024-02-16T08:48:38.728Z,13.40
2024-02-16T08:51:19.291Z,13.27
2024-02-16T08:54:38.806Z,13.35
2024-02-16T09:00:41.398Z,13.48
2024-02-16T09:06:14.141Z,13.38
2024-02-16T09:09:00.423Z,13.35
2024-02-16T09:14:21.265Z,13.34
2024-02-16T09:17:00.420Z,13.32
2024-02-16T09:19:48.257Z,13.30
2024-02-16T09:28:47.271Z,13.44
2024-02-16T09:31:42.343Z,13.55
2024-02-16T09:34:10.355Z,13.73
2024-02-16T09:36:39.045Z,13.86
2024-02-16T09:39:07.387Z,13.99
2024-02-16T09:41:51.757Z,14.18
2024-02-16T09:44:27.792Z,14.50
2024-02-16T09:47:03.725Z,15.14
2024-02-16T09:49:38.980Z,16.77
2024-02-16T09:52:12.007Z,18.07
2024-02-16T09:54:40.946Z,17.75
2024-02-16T09:57:09.492Z,17.58
2024-02-16T09:59:38.974Z,17.79
2024-02-16T10:02:08.467Z,17.90
2024-02-16T10:04:37.434Z,18.64
2024-02-16T10:07:10.525Z,19.64
2024-02-16T10:09:42.599Z,21.48
2024-02-16T10:12:11.666Z,22.46
2024-02-16T10:14:42.880Z,21.90
2024-02-16T10:17:11.170Z,21.26
2024-02-16T10:19:41.862Z,20.69
2024-02-16T10:22:11.806Z,20.06
2024-02-16T10:24:40.831Z,19.42
2024-02-16T10:27:32.037Z,18.57
2024-02-16T10:36:37.657Z,16.91
2024-02-16T11:04:57.379Z,15.86
2024-02-16T11:07:38.827Z,15.90
2024-02-16T11:13:53.985Z,15.99
2024-02-16T11:16:43.514Z,16.24
2024-02-16T11:33:27.135Z,18.87
2024-02-16T11:45:36.686Z,19.13
2024-02-16T11:51:18.682Z,18.92
2024-02-16T11:53:48.568Z,18.88
2024-02-16T11:56:35.686Z,18.84
2024-02-16T11:59:03.943Z,18.93
2024-02-16T12:01:33.325Z,19.10
2024-02-16T12:04:01.597Z,19.36
2024-02-16T12:13:48.724Z,21.38
2024-02-16T12:17:56.969Z,22.41
2024-02-16T12:20:34.684Z,22.24
2024-02-16T12:23:46.119Z,21.53
2024-02-16T12:45:29.516Z,19.41
2024-02-16T13:00:55.156Z,19.82
2024-02-16T13:11:16.493Z,19.58
2024-02-16T13:34:23.120Z,18.40
2024-02-16T13:36:51.589Z,18.39
2024-02-16T13:39:28.498Z,18.30
2024-02-16T13:42:03.841Z,18.19
2024-02-16T13:44:47.622Z,18.04
2024-02-16T13:47:19.234Z,17.96
2024-02-16T13:49:48.641Z,17.89
2024-02-16T13:52:16.856Z,17.76
2024-02-16T13:54:45.263Z,17.72
2024-02-16T13:57:15.427Z,17.64
2024-02-16T13:59:44.254Z,17.60
2024-02-16T14:02:12.436Z,17.50
2024-02-16T14:04:42.002Z,17.38
2024-02-16T14:07:11.473Z,17.30
2024-02-16T14:09:40.041Z,17.28
2024-02-16T14:12:08.733Z,17.20
2024-02-16T14:14:40.576Z,17.19
2024-02-16T14:17:11.868Z,17.12
2024-02-16T14:19:39.985Z,17.11
2024-02-16T14:22:08.884Z,17.08
2024-02-16T14:24:36.949Z,17.03
2024-02-16T14:27:05.948Z,17.03
2024-02-16T14:29:34.223Z,17.01
2024-02-16T14:32:04.236Z,16.95
2024-02-16T14:34:32.622Z,16.92
2024-02-16T14:37:02.355Z,16.88
2024-02-16T14:39:32.384Z,16.88
2024-02-16T14:42:00.447Z,16.87
2024-02-16T14:44:28.826Z,16.82
2024-02-16T14:46:58.286Z,16.77
2024-02-16T14:49:28.031Z,16.74
2024-02-16T14:51:56.071Z,16.69
2024-02-16T14:54:28.403Z,16.65
2024-02-16T14:56:56.912Z,16.57
2024-02-16T14:59:25.529Z,16.50
2024-02-16T15:01:54.092Z,16.47
2024-02-16T15:04:22.707Z,16.44
2024-02-16T15:06:52.090Z,16.41
2024-02-16T15:09:20.260Z,16.35
2024-02-16T15:11:48.435Z,16.28
2024-02-16T15:14:20.221Z,16.16
2024-02-16T15:16:48.750Z,16.08
2024-02-16T15:19:16.733Z,16.00
2024-02-16T15:21:45.900Z,15.93
2024-02-16T15:24:15.319Z,15.89
2024-02-16T15:26:43.683Z,15.85
2024-02-16T15:29:11.568Z,15.77
2024-02-16T15:31:39.639Z,15.72
2024-02-16T15:34:07.784Z,15.65
2024-02-16T15:36:36.347Z,15.58
2024-02-16T15:39:04.504Z,15.51
2024-02-16T15:41:36.617Z,15.48
2024-02-16T15:44:04.863Z,15.46
2024-02-16T15:46:32.928Z,15.41
2024-02-16T15:49:01.147Z,15.38
2024-02-16T15:51:30.030Z,15.36
2024-02-16T15:53:58.714Z,15.36
2024-02-16T15:56:28.002Z,15.31
2024-02-16T15:59:00.763Z,15.22
2024-02-16T16:01:29.379Z,15.18
2024-02-16T16:03:58.081Z,15.11
2024-02-16T16:06:27.476Z,15.09
2024-02-16T16:08:56.537Z,15.09
2024-02-16T16:11:24.713Z,15.04
2024-02-16T16:13:52.647Z,15.02
2024-02-16T16:16:22.997Z,15.02
2024-02-16T16:18:53.240Z,14.98
2024-02-16T16:21:21.608Z,14.96
2024-02-16T16:23:49.648Z,14.93
2024-02-16T16:26:17.743Z,14.96
2024-02-16T16:28:45.565Z,14.97
2024-02-16T16:31:13.819Z,14.96
2024-02-16T16:33:43.327Z,14.89
2024-02-16T16:36:14.761Z,14.86
2024-02-16T16:38:43.385Z,14.81
2024-02-16T16:41:12.378Z,14.80
2024-02-16T16:43:40.613Z,14.79
2024-02-16T16:46:09.241Z,14.83
2024-02-16T16:48:37.451Z,14.80
2024-02-16T16:51:07.671Z,14.80
2024-02-16T16:53:38.010Z,14.74
2024-02-16T16:56:06.592Z,14.72
2024-02-16T16:58:34.579Z,14.69
2024-02-16T17:01:02.618Z,14.64
2024-02-16T17:03:30.933Z,14.62
2024-02-16T17:05:59.358Z,14.63
2024-02-16T17:08:28.901Z,14.60
2024-02-16T17:10:56.909Z,14.60
2024-02-16T17:13:24.857Z,14.59
2024-02-16T17:15:53.237Z,14.56
2024-02-16T17:18:21.332Z,14.51
2024-02-16T17:20:49.782Z,14.47
2024-02-16T17:23:19.829Z,14.40
2024-02-16T17:25:53.636Z,14.39
2024-02-16T17:28:21.776Z,14.42
2024-02-16T17:30:49.959Z,14.42
2024-02-16T17:33:18.059Z,14.39
2024-02-16T17:35:46.666Z,14.34
2024-02-16T17:38:15.179Z,14.34
2024-02-16T17:40:43.789Z,14.35
2024-02-16T17:43:14.161Z,14.36
2024-02-16T17:45:43.824Z,14.31
2024-02-16T18:32:42.791Z,14.19
2024-02-16T19:56:20.502Z,13.86
2024-02-16T23:06:14.601Z,14.10
